Time;durP1;ratioP1;P1;durP2;ratioP2;P2;SDS_P1;SDS_P2;PMS_P1;PMS_P2;Temp;Humidity;BMP_temperature;BMP_pressure;BME280_temperature;BME280_humidity;BME280_pressure;Samples;Min_cycle;Max_cycle;Signal;HPM_P1;HPM_P2
2021/01/04 00:00:38;;;;;;;32.08;15.02;;;;;;;1.79;66.64;95820.66;5058187;28;20048;-67
2021/01/04 00:03:25;;;;;;;33.58;15.35;;;;;;;1.80;66.61;95819.59;5070463;28;20067;-67
2021/01/04 00:06:01;;;;;;;32.40;15.68;;;;;;;1.79;66.86;95820.66;5071665;28;20047;-68
2021/01/04 00:08:40;;;;;;;32.42;15.85;;;;;;;1.79;66.70;95817.97;5071453;28;20045;-67
2021/01/04 00:11:28;;;;;;;33.22;16.25;;;;;;;1.79;66.96;95815.31;5069989;28;20514;-67
2021/01/04 00:14:06;;;;;;;31.65;15.18;;;;;;;1.78;66.73;95821.75;5071875;28;20078;-67
2021/01/04 00:16:40;;;;;;;28.45;14.63;;;;;;;1.77;66.59;95828.19;5068094;28;20049;-67
2021/01/04 00:19:11;;;;;;;35.10;16.60;;;;;;;1.79;66.40;95825.25;5070981;28;20051;-67
2021/01/04 00:21:47;;;;;;;32.22;14.77;;;;;;;1.79;66.40;95826.03;5069510;28;20048;-67
2021/01/04 00:24:21;;;;;;;35.63;16.15;;;;;;;1.79;66.39;95835.97;5068653;28;20548;-67
2021/01/04 00:26:53;;;;;;;32.90;15.77;;;;;;;1.79;66.53;95828.72;5064471;28;20045;-67
2021/01/04 00:29:21;;;;;;;35.95;16.83;;;;;;;1.78;66.39;95821.75;5069632;28;20133;-68
2021/01/04 00:31:55;;;;;;;30.63;15.63;;;;;;;1.81;67.54;95829.25;5071329;28;20098;-67
2021/01/04 00:34:25;;;;;;;33.15;15.82;;;;;;;1.77;67.62;95832.75;5070779;28;20056;-67
2021/01/04 00:37:08;;;;;;;32.65;15.43;;;;;;;1.75;67.58;95824.97;5070657;28;20106;-67
2021/01/04 00:39:39;;;;;;;;;;;;;;;1.73;66.95;95832.50;5071695;28;20048;-67
2021/01/04 00:42:19;;;;;;;31.92;15.13;;;;;;;1.71;66.14;95831.97;5070228;28;19924;-67
2021/01/04 00:44:56;;;;;;;30.80;16.27;;;;;;;1.72;66.18;95836.28;5071631;28;20048;-68
2021/01/04 00:47:30;;;;;;;31.23;14.82;;;;;;;1.73;66.11;95829.81;5066783;28;20052;-67
2021/01/04 00:50:04;;;;;;;34.03;15.57;;;;;;;1.69;65.97;95836.81;5070939;28;20044;-68
2021/01/04 00:52:41;;;;;;;30.52;15.00;;;;;;;1.68;66.06;95840.56;5067247;28;20102;-67
2021/01/04 00:55:36;;;;;;;36.55;15.57;;;;;;;1.65;65.90;95841.13;5069740;28;20056;-68
2021/01/04 00:58:40;;;;;;;33.97;15.75;;;;;;;1.63;66.03;95837.91;5043950;28;20045;-68
2021/01/04 01:01:12;;;;;;;35.70;15.80;;;;;;;1.60;65.81;95843.81;5069594;28;20102;-68
2021/01/04 01:03:59;;;;;;;30.90;15.05;;;;;;;1.62;65.81;95846.22;5070398;28;20062;-67
2021/01/04 01:06:34;;;;;;;31.52;14.57;;;;;;;1.60;65.33;95838.44;5069729;28;20399;-68
2021/01/04 01:09:01;;;;;;;26.52;14.27;;;;;;;1.63;65.64;95843.28;5070962;28;20068;-67
2021/01/04 01:11:54;;;;;;;32.88;15.55;;;;;;;1.62;66.05;95841.69;5069580;28;20134;-69
2021/01/04 01:14:28;;;;;;;31.83;15.38;;;;;;;1.63;65.89;95843.28;5069048;28;20139;-67
2021/01/04 01:17:04;;;;;;;32.67;15.82;;;;;;;1.68;66.78;95845.94;5067473;28;20118;-67
2021/01/04 01:19:36;;;;;;;36.42;16.55;;;;;;;1.66;66.46;95845.41;5070020;28;20044;-67
2021/01/04 01:22:05;;;;;;;33.38;15.77;;;;;;;1.66;66.42;95842.72;5068031;28;20049;-68
2021/01/04 01:24:32;;;;;;;32.60;16.20;;;;;;;1.66;66.65;95840.03;5070265;28;20053;-67
2021/01/04 01:27:22;;;;;;;36.75;16.30;;;;;;;1.69;66.94;95844.06;5069044;28;20135;-67
2021/01/04 01:30:25;;;;;;;30.73;15.43;;;;;;;1.68;66.79;95837.91;5070016;28;20049;-67
2021/01/04 01:33:06;;;;;;;33.00;15.73;;;;;;;1.63;66.49;95848.66;5069451;28;20079;-70
2021/01/04 01:35:44;;;;;;;35.03;16.73;;;;;;;1.63;66.59;95853.22;5065458;28;20044;-68
2021/01/04 01:38:30;;;;;;;33.75;16.13;;;;;;;1.62;66.61;95849.72;5070000;28;20109;-68
2021/01/04 01:41:21;;;;;;;30.25;14.88;;;;;;;1.59;66.25;95847.59;5069268;28;20495;-68
2021/01/04 01:43:58;;;;;;;36.47;16.20;;;;;;;1.61;66.44;95850.78;5068255;28;20068;-66
2021/01/04 01:46:31;;;;;;;35.78;16.08;;;;;;;1.61;66.57;95845.41;5065103;28;20491;-67
2021/01/04 01:49:14;;;;;;;36.95;17.40;;;;;;;1.61;66.52;95844.63;5069199;28;20101;-67
2021/01/04 01:52:10;;;;;;;33.47;16.25;;;;;;;1.60;66.63;95849.19;5064146;28;20036;-67
2021/01/04 01:54:56;;;;;;;36.30;16.50;;;;;;;1.60;66.75;95857.22;5056408;28;20044;-69
2021/01/04 01:57:39;;;;;;;31.77;15.52;;;;;;;1.59;66.68;95863.69;5068435;28;20131;-69
2021/01/04 02:00:16;;;;;;;37.08;17.10;;;;;;;1.58;66.78;95855.91;5067994;28;20385;-69
2021/01/04 02:02:54;;;;;;;36.75;15.80;;;;;;;1.57;66.79;95863.16;5068492;28;20067;-69
2021/01/04 02:05:31;;;;;;;39.38;16.42;;;;;;;1.54;66.84;95861.00;5063825;28;20405;-69
2021/01/04 02:08:03;;;;;;;31.83;15.35;;;;;;;1.49;66.47;95866.38;5069264;28;20103;-69
2021/01/04 02:10:33;;;;;;;32.53;16.10;;;;;;;1.50;66.40;95862.63;5068602;28;20052;-67
2021/01/04 02:13:08;;;;;;;32.80;15.10;;;;;;;1.50;66.56;95857.25;5069309;28;20048;-67
2021/01/04 02:15:42;;;;;;;34.55;15.50;;;;;;;1.51;66.65;95861.53;5059956;28;20126;-67
2021/01/04 02:18:27;;;;;;;32.08;15.85;;;;;;;1.54;66.48;95861.00;5048311;28;20651;-67
2021/01/04 02:21:42;;;;;;;34.83;15.80;;;;;;;1.59;66.10;95849.47;5048796;28;20053;-67
2021/01/04 02:24:10;;;;;;;32.20;14.65;;;;;;;1.57;66.40;95852.44;5047809;28;20431;-66
2021/01/04 02:26:39;;;;;;;31.65;14.60;;;;;;;1.55;66.07;95854.56;5049611;28;20132;-67
2021/01/04 02:29:08;;;;;;;32.90;15.30;;;;;;;1.58;66.18;95843.28;5048428;28;20057;-67
2021/01/04 02:31:38;;;;;;;32.00;15.80;;;;;;;1.56;66.31;95843.53;5049849;28;20049;-67
2021/01/04 02:34:07;;;;;;;31.58;15.63;;;;;;;1.54;66.13;95850.28;5048272;28;20126;-67
2021/01/04 02:36:37;;;;;;;33.75;15.23;;;;;;;1.54;66.23;95840.34;5048879;28;20413;-67
2021/01/04 02:39:08;;;;;;;32.75;15.40;;;;;;;1.53;66.40;95848.69;5048492;28;20103;-68
2021/01/04 02:41:57;;;;;;;28.73;14.88;;;;;;;1.56;66.64;95848.13;5049106;28;20049;-67
2021/01/04 02:44:25;;;;;;;35.53;15.38;;;;;;;1.50;67.60;95843.84;5049435;28;20043;-66
2021/01/04 02:47:02;;;;;;;30.77;14.77;;;;;;;1.51;67.29;95842.75;5066203;28;20056;-67
2021/01/04 02:49:36;;;;;;;36.97;16.80;;;;;;;1.49;67.14;95852.97;5069694;28;20040;-67
2021/01/04 02:52:09;;;;;;;34.00;15.27;;;;;;;1.48;67.14;95851.38;5068604;28;20060;-67
2021/01/04 02:54:42;;;;;;;30.23;14.63;;;;;;;1.48;66.98;95857.53;5071392;28;20051;-67
2021/01/04 02:57:18;;;;;;;32.80;15.52;;;;;;;1.47;66.92;95852.44;5072200;28;20879;-66
2021/01/04 02:59:52;;;;;;;30.80;14.90;;;;;;;1.50;66.61;95857.25;5072134;28;20423;-67
2021/01/04 03:02:26;;;;;;;33.22;14.65;;;;;;;1.52;66.65;95855.13;5071446;28;20047;-67
2021/01/04 03:04:52;;;;;;;33.33;15.98;;;;;;;1.47;66.79;95858.63;5072068;28;20534;-68
2021/01/04 03:07:21;;;;;;;33.53;16.23;;;;;;;1.50;66.67;95859.94;5072759;28;20040;-67
2021/01/04 03:09:49;;;;;;;34.92;15.48;;;;;;;1.51;66.91;95853.50;5072159;28;20048;-67
2021/01/04 03:12:19;;;;;;;35.10;16.25;;;;;;;1.44;65.79;95861.84;5072620;28;20055;-67
2021/01/04 03:15:19;;;;;;;33.17;15.48;;;;;;;1.42;65.91;95860.50;5072288;28;20523;-67
2021/01/04 03:17:58;;;;;;;33.58;15.00;;;;;;;1.44;66.79;95861.03;5051727;28;20420;-67
2021/01/04 03:20:25;;;;;;;35.50;16.38;;;;;;;1.42;66.62;95855.16;5052424;28;20409;-67
2021/01/04 03:22:53;;;;;;;30.77;14.10;;;;;;;1.39;66.55;95850.31;5052041;28;20522;-67
2021/01/04 03:25:31;;;;;;;31.63;14.50;;;;;;;1.39;66.85;95853.00;5050230;28;20497;-67
2021/01/04 03:27:59;;;;;;;39.20;15.63;;;;;;;1.35;66.46;95862.66;5051966;28;20049;-66
2021/01/04 03:30:26;;;;;;;36.20;16.45;;;;;;;1.33;66.77;95864.81;5051648;28;20145;-66
2021/01/04 03:32:52;;;;;;;33.17;15.35;;;;;;;1.30;66.27;95864.28;5052618;28;20403;-67
2021/01/04 03:35:18;;;;;;;33.17;15.40;;;;;;;1.30;66.28;95861.59;5051358;28;20053;-67
2021/01/04 03:37:44;;;;;;;33.95;15.82;;;;;;;1.33;66.30;95860.25;5052513;28;20059;-67
2021/01/04 03:40:11;;;;;;;33.53;15.68;;;;;;;1.38;66.63;95867.50;5050595;28;20053;-67
2021/01/04 03:42:37;;;;;;;31.85;15.07;;;;;;;1.40;66.83;95859.97;5052801;28;20053;-66
2021/01/04 03:45:05;;;;;;;32.83;14.38;;;;;;;1.42;66.84;95857.81;5053237;28;20084;-67
2021/01/04 03:47:31;;;;;;;30.85;14.38;;;;;;;1.45;66.79;95854.59;5052347;28;20397;-66
2021/01/04 03:49:57;;;;;;;35.17;17.30;;;;;;;1.44;66.69;95861.03;5051775;28;20052;-67
2021/01/04 03:52:23;;;;;;;36.67;15.60;;;;;;;1.42;66.80;95852.47;5051612;28;20044;-68
2021/01/04 03:54:49;;;;;;;33.65;15.50;;;;;;;1.45;66.58;95851.91;5051883;28;20516;-67
2021/01/04 03:57:15;;;;;;;35.28;16.33;;;;;;;1.44;66.71;95856.47;5050782;28;20073;-67
2021/01/04 03:59:42;;;;;;;32.70;15.10;;;;;;;1.42;66.62;95852.47;5052090;28;20045;-67
2021/01/04 04:02:09;;;;;;;35.67;16.08;;;;;;;1.42;66.62;95852.47;5050923;28;20045;-67
2021/01/04 04:04:35;;;;;;;32.85;15.70;;;;;;;1.42;66.71;95847.09;5052053;28;20099;-69
2021/01/04 04:07:01;;;;;;;34.75;15.60;;;;;;;1.43;66.74;95851.38;5045683;28;20041;-67
2021/01/04 04:09:27;;;;;;;33.17;15.55;;;;;;;1.44;66.61;95850.31;5040103;28;20045;-67
2021/01/04 04:11:53;;;;;;;34.30;15.70;;;;;;;1.44;66.71;95855.66;5031154;28;20114;-68
2021/01/04 04:14:19;;;;;;;33.08;15.65;;;;;;;1.44;66.63;95851.09;5031464;28;20484;-69
2021/01/04 04:16:47;;;;;;;33.90;14.70;;;;;;;1.46;66.55;95856.19;5050185;28;20049;-68
2021/01/04 04:19:14;;;;;;;31.92;15.45;;;;;;;1.45;66.53;95851.91;5051097;28;20424;-67
2021/01/04 04:21:40;;;;;;;33.10;16.25;;;;;;;1.47;66.26;95860.50;5051696;28;20436;-69
2021/01/04 04:24:07;;;;;;;31.55;15.50;;;;;;;1.48;66.27;95862.09;5050688;28;20056;-69
2021/01/04 04:26:33;;;;;;;35.97;15.57;;;;;;;1.48;66.44;95860.22;5050941;28;20053;-67
2021/01/04 04:28:59;;;;;;;35.83;17.02;;;;;;;1.49;66.79;95852.97;5050504;28;20064;-66
2021/01/04 04:31:25;;;;;;;31.33;15.48;;;;;;;1.47;67.07;95855.94;5051520;28;20500;-66
2021/01/04 04:33:52;;;;;;;34.05;15.93;;;;;;;1.48;66.89;95854.06;5050671;28;20045;-66
2021/01/04 04:36:21;;;;;;;34.03;15.38;;;;;;;1.46;66.61;95853.50;5050737;28;20052;-66
2021/01/04 04:38:47;;;;;;;34.97;15.75;;;;;;;1.38;66.15;95849.50;5050460;28;20049;-67
2021/01/04 04:41:24;;;;;;;31.33;15.80;;;;;;;1.38;66.19;95851.41;5050669;28;20107;-67
2021/01/04 04:43:52;;;;;;;32.25;15.30;;;;;;;1.39;66.53;95853.00;5050959;28;20045;-66
2021/01/04 04:46:27;;;;;;;30.00;15.07;;;;;;;1.40;66.51;95851.91;5050066;28;20407;-66
2021/01/04 04:48:55;;;;;;;32.78;15.60;;;;;;;1.41;66.46;95845.47;5051030;28;20049;-66
2021/01/04 04:51:32;;;;;;;32.25;14.75;;;;;;;1.44;66.47;95850.31;5049886;28;20063;-69
2021/01/04 04:54:24;;;;;;;32.78;14.95;;;;;;;1.46;66.78;95848.97;5051451;28;20098;-66
2021/01/04 04:57:06;;;;;;;34.00;15.20;;;;;;;1.47;66.74;95844.41;5050166;28;20045;-66
2021/01/04 04:59:45;;;;;;;29.40;14.52;;;;;;;1.48;66.94;95844.13;5030582;28;20046;-69
2021/01/04 05:02:18;;;;;;;30.98;14.63;;;;;;;1.49;67.12;95844.94;5030882;28;20095;-67
2021/01/04 05:05:07;;;;;;;21.07;10.83;;;;;;;1.48;66.49;95840.63;5030101;28;20417;-66
2021/01/04 05:07:44;;;;;;;28.27;15.15;;;;;;;1.47;66.14;95849.78;5030580;28;20280;-67
2021/01/04 05:10:13;;;;;;;31.83;14.43;;;;;;;1.47;66.22;95853.25;5030006;28;20045;-67
2021/01/04 05:12:43;;;;;;;35.30;15.95;;;;;;;1.47;66.25;95861.31;5030454;28;20413;-67
2021/01/04 05:15:36;;;;;;;29.23;14.00;;;;;;;1.47;66.30;95855.94;5036375;28;20049;-66
2021/01/04 05:18:57;;;;;;;23.93;11.77;;;;;;;1.48;66.43;95852.16;5045906;28;20075;-67
2021/01/04 05:21:49;;;;;;;29.00;14.75;;;;;;;1.45;66.83;95851.91;5049573;28;20302;-67
2021/01/04 05:24:36;;;;;;;29.92;14.70;;;;;;;1.45;66.80;95854.59;5050203;28;20049;-66
2021/01/04 05:27:32;;;;;;;28.65;13.80;;;;;;;1.44;66.64;95847.63;5040805;28;20053;-67
2021/01/04 05:30:14;;;;;;;22.65;12.65;;;;;;;1.31;65.01;95859.72;5050461;28;20052;-67
2021/01/04 05:33:14;;;;;;;28.23;12.98;;;;;;;1.29;64.83;95859.19;5050066;28;20037;-67
2021/01/04 05:35:41;;;;;;;24.75;13.52;;;;;;;1.27;64.88;95856.78;5049199;28;20041;-67
2021/01/04 05:38:14;;;;;;;28.13;12.30;;;;;;;1.25;64.86;95853.56;5049708;28;20049;-67
2021/01/04 05:41:10;;;;;;;28.08;14.23;;;;;;;1.22;65.50;95851.41;5049659;28;20064;-67
2021/01/04 05:43:50;;;;;;;26.15;13.15;;;;;;;1.23;65.62;95847.66;5050010;28;20044;-68
2021/01/04 05:46:23;;;;;;;30.13;13.85;;;;;;;1.25;65.65;95848.22;5051606;28;20049;-67
2021/01/04 05:49:09;;;;;;;26.55;13.23;;;;;;;1.23;65.78;95839.59;5049447;28;20048;-67
2021/01/04 05:51:37;;;;;;;28.85;13.90;;;;;;;1.29;66.05;95843.09;5037414;28;20477;-67
2021/01/04 05:54:04;;;;;;;28.77;13.90;;;;;;;1.30;65.91;95840.16;5029739;28;20177;-67
2021/01/04 05:56:31;;;;;;;25.15;13.27;;;;;;;1.33;66.13;95843.34;5029214;28;20053;-67
2021/01/04 05:59:08;;;;;;;29.75;13.43;;;;;;;1.37;65.94;95839.06;5029362;28;20103;-68
2021/01/04 06:01:34;;;;;;;27.90;14.23;;;;;;;1.39;65.75;95836.91;5049688;28;20049;-66
2021/01/04 06:04:02;;;;;;;25.15;12.88;;;;;;;1.41;65.58;95850.84;5049937;28;20045;-67
2021/01/04 06:06:32;;;;;;;27.13;13.25;;;;;;;1.43;65.59;95848.69;5048776;28;20037;-67
2021/01/04 06:09:07;;;;;;;23.88;12.02;;;;;;;1.44;65.53;95853.78;5050060;28;20041;-66
2021/01/04 06:11:34;;;;;;;34.03;16.90;;;;;;;1.45;65.77;95854.59;5049022;28;20045;-67
2021/01/04 06:14:06;;;;;;;29.85;13.57;;;;;;;1.45;65.80;95857.28;5049351;28;20059;-67
2021/01/04 06:16:32;;;;;;;28.95;14.63;;;;;;;1.42;65.72;95855.16;5050353;28;20071;-67
2021/01/04 06:19:09;;;;;;;31.67;15.68;;;;;;;1.44;65.78;95855.66;5049544;28;20059;-67
2021/01/04 06:21:44;;;;;;;32.90;15.70;;;;;;;1.41;65.70;95856.19;5049094;28;20049;-68
2021/01/04 06:24:18;;;;;;;27.83;14.57;;;;;;;1.38;65.69;95841.47;5048818;28;20072;-68
2021/01/04 06:26:50;;;;;;;29.52;13.85;;;;;;;1.36;65.61;95846.31;5049667;28;20098;-67
2021/01/04 06:29:33;;;;;;;30.65;14.93;;;;;;;1.37;65.71;95850.59;5050075;28;20668;-67
2021/01/04 06:32:00;;;;;;;31.42;15.25;;;;;;;1.37;65.84;95849.78;5054008;28;20056;-67
2021/01/04 06:34:29;;;;;;;35.47;14.93;;;;;;;1.36;65.46;95848.16;5052743;28;20064;-67
2021/01/04 06:37:00;;;;;;;30.85;15.52;;;;;;;1.33;65.89;95859.44;5053028;28;20049;-68
2021/01/04 06:39:28;;;;;;;30.27;15.10;;;;;;;1.31;66.15;95851.69;5052939;28;20052;-67
2021/01/04 06:42:08;;;;;;;29.50;14.38;;;;;;;1.30;66.24;95856.25;5052894;28;20063;-67
2021/01/04 06:44:34;;;;;;;33.00;15.38;;;;;;;1.30;66.01;95856.25;5054767;28;20051;-68
2021/01/04 06:47:24;;;;;;;36.30;15.18;;;;;;;1.33;66.28;95851.41;5053375;28;20041;-67
2021/01/04 06:49:59;;;;;;;34.03;15.15;;;;;;;1.37;66.16;95853.28;5053531;28;20090;-66
2021/01/04 06:53:06;;;;;;;36.67;15.70;;;;;;;1.39;66.06;95850.31;5052902;28;20128;-68
2021/01/04 06:56:03;;;;;;;35.40;17.20;;;;;;;1.40;66.09;95849.22;5052480;28;20053;-70
2021/01/04 06:59:05;;;;;;;32.20;16.10;;;;;;;1.35;66.34;95859.97;5053355;28;20049;-67
2021/01/04 07:02:07;;;;;;;36.35;16.13;;;;;;;1.28;66.31;95858.38;5052887;28;20063;-67
2021/01/04 07:05:20;;;;;;;38.85;16.52;;;;;;;1.24;66.26;95873.41;5052184;28;20048;-67
2021/01/04 07:08:00;;;;;;;32.33;15.02;;;;;;;1.24;66.27;95867.22;5053226;28;20049;-67
2021/01/04 07:10:39;;;;;;;32.53;14.73;;;;;;;1.23;66.18;95865.63;5052112;28;20041;-67
2021/01/04 07:13:34;;;;;;;38.25;16.55;;;;;;;1.23;66.58;95879.84;5052240;28;20137;-66
2021/01/04 07:16:17;;;;;;;36.58;16.30;;;;;;;1.23;66.76;95873.69;5034902;28;20064;-67
2021/01/04 07:18:53;;;;;;;37.95;17.17;;;;;;;1.24;67.19;95872.59;5052439;28;20037;-67
2021/01/04 07:21:42;;;;;;;38.33;16.13;;;;;;;1.22;66.69;95880.91;5052442;28;20496;-67
2021/01/04 07:24:24;;;;;;;35.60;16.33;;;;;;;1.25;66.94;95885.75;5052866;28;20110;-67
2021/01/04 07:27:04;;;;;;;37.65;16.10;;;;;;;1.28;67.29;95884.41;5052253;28;20056;-67
2021/01/04 07:29:47;;;;;;;37.20;17.40;;;;;;;1.34;67.01;95890.56;5052903;28;20056;-67
2021/01/04 07:32:17;;;;;;;37.53;17.00;;;;;;;1.38;67.36;95888.94;5052974;28;20045;-67
2021/01/04 07:34:51;;;;;;;39.35;16.95;;;;;;;1.34;67.23;95895.94;5052595;28;20048;-67
2021/01/04 07:37:36;;;;;;;39.47;16.20;;;;;;;1.30;67.23;95896.47;5052388;28;20408;-67
2021/01/04 07:40:13;;;;;;;36.55;16.52;;;;;;;1.29;67.10;95897.53;5051307;28;20060;-67
2021/01/04 07:43:02;;;;;;;33.30;15.65;;;;;;;1.30;67.30;95892.97;5053135;28;20063;-67
2021/01/04 07:45:51;;;;;;;35.35;16.55;;;;;;;1.30;67.48;95893.81;5054034;28;20061;-67
2021/01/04 07:48:50;;;;;;;39.42;17.55;;;;;;;1.32;67.59;95887.34;5051665;28;20041;-67
2021/01/04 07:51:53;;;;;;;35.38;16.13;;;;;;;1.28;67.52;95892.44;5052560;28;20057;-67
2021/01/04 07:54:52;;;;;;;38.97;16.93;;;;;;;1.26;67.50;95892.72;5051447;28;20045;-67
2021/01/04 07:57:50;;;;;;;36.35;16.60;;;;;;;1.23;67.73;95893.25;5051397;28;20286;-67
2021/01/04 08:00:47;;;;;;;35.83;16.38;;;;;;;1.26;67.78;95895.41;5052249;28;20048;-67
2021/01/04 08:03:51;;;;;;;38.25;17.23;;;;;;;1.26;67.71;95887.38;5050553;28;20041;-68
2021/01/04 08:06:49;;;;;;;43.25;18.98;;;;;;;1.27;67.64;95888.97;5051398;28;20060;-68
2021/01/04 08:09:25;;;;;;;39.33;17.40;;;;;;;1.28;67.61;95898.63;5052018;28;20500;-66
2021/01/04 08:12:31;;;;;;;36.33;17.35;;;;;;;1.28;67.17;95901.28;5051587;28;20044;-68
2021/01/04 08:15:10;;;;;;;37.92;17.10;;;;;;;1.23;67.57;95900.50;5013620;28;20441;-68
2021/01/04 08:17:45;;;;;;;39.92;17.05;;;;;;;1.20;67.59;95898.34;5052158;28;20069;-68
2021/01/04 08:20:12;;;;;;;38.08;16.88;;;;;;;1.20;67.10;95903.72;5050617;28;20048;-68
2021/01/04 08:22:48;;;;;;;39.58;16.65;;;;;;;1.18;66.74;95901.31;5052594;28;20103;-69
2021/01/04 08:25:27;;;;;;;38.60;17.15;;;;;;;1.15;66.62;95901.84;5050595;28;20057;-66
2021/01/04 08:28:10;;;;;;;35.63;16.75;;;;;;;1.13;66.49;95903.97;5052247;28;20076;-68
2021/01/04 08:30:40;;;;;;;33.38;17.23;;;;;;;1.13;66.73;95897.81;5036513;28;20053;-68
2021/01/04 08:33:15;;;;;;;37.20;16.88;;;;;;;1.11;67.40;95890.06;5050702;28;20678;-69
2021/01/04 08:35:43;;;;;;;39.85;17.80;;;;;;;1.13;67.58;95903.19;5052119;28;20045;-68
2021/01/04 08:38:37;;;;;;;36.97;17.63;;;;;;;1.12;67.93;95905.06;5050451;28;20102;-66
2021/01/04 08:41:09;;;;;;;39.17;16.73;;;;;;;1.17;67.79;95909.63;5046073;28;20048;-67
2021/01/04 08:43:40;;;;;;;35.53;16.53;;;;;;;1.16;67.56;95908.81;5051357;28;20048;-67
2021/01/04 08:46:13;;;;;;;42.00;17.83;;;;;;;1.19;67.50;95919.00;5064281;28;20287;-67
2021/01/04 08:48:40;;;;;;;35.80;16.27;;;;;;;1.17;68.14;95915.78;5071659;28;20041;-67
2021/01/04 08:51:09;;;;;;;33.85;16.67;;;;;;;1.18;67.46;95912.03;5069867;28;20040;-67
2021/01/04 08:53:36;;;;;;;36.38;16.73;;;;;;;1.15;67.19;95912.59;5071863;28;20450;-67
2021/01/04 08:56:17;;;;;;;36.55;17.25;;;;;;;1.16;67.57;95916.88;5069950;28;20051;-67
2021/01/04 08:58:45;;;;;;;34.95;16.90;;;;;;;1.15;67.45;95909.06;5071435;28;20052;-67
2021/01/04 09:01:21;;;;;;;39.30;17.40;;;;;;;1.12;67.21;95912.31;5070293;28;20049;-67
2021/01/04 09:03:48;;;;;;;39.13;17.48;;;;;;;1.13;67.09;95919.28;5070927;28;20045;-67
2021/01/04 09:06:29;;;;;;;37.45;17.52;;;;;;;1.11;67.11;95927.59;5070811;28;20066;-67
2021/01/04 09:09:08;;;;;;;40.65;17.85;;;;;;;1.06;67.07;95927.59;5070166;28;20044;-66
2021/01/04 09:11:49;;;;;;;38.65;18.17;;;;;;;1.02;67.40;95929.19;5071340;28;20055;-69
2021/01/04 09:14:23;;;;;;;42.97;18.63;;;;;;;1.03;67.59;95928.13;5069818;28;20058;-66
2021/01/04 09:16:49;;;;;;;40.85;18.65;;;;;;;1.05;67.74;95923.31;5053032;28;20059;-66
2021/01/04 09:19:24;;;;;;;40.28;18.50;;;;;;;1.08;67.85;95917.41;5050374;28;20105;-67
2021/01/04 09:21:51;;;;;;;37.42;17.95;;;;;;;1.07;67.19;95915.78;5050357;28;20169;-67
2021/01/04 09:24:33;;;;;;;41.42;19.38;;;;;;;1.07;67.98;95910.44;5050561;28;20061;-67
2021/01/04 09:27:03;;;;;;;41.63;19.60;;;;;;;1.05;68.67;95907.22;5050092;28;20045;-67
2021/01/04 09:29:33;;;;;;;38.78;18.95;;;;;;;0.96;67.96;95919.53;5038670;28;20046;-67
2021/01/04 09:32:01;;;;;;;39.60;18.02;;;;;;;0.99;68.64;95919.00;5029914;28;20053;-67
2021/01/04 09:34:29;;;;;;;39.35;18.70;;;;;;;0.97;69.06;95921.16;5050249;28;20504;-67
2021/01/04 09:37:05;;;;;;;44.72;19.58;;;;;;;1.00;68.99;95926.78;5050478;28;20056;-67
2021/01/04 09:39:34;;;;;;;43.60;19.08;;;;;;;0.95;68.06;95928.66;5049994;28;20107;-67
2021/01/04 09:42:02;;;;;;;41.75;19.40;;;;;;;0.94;68.20;95919.00;5050775;28;20518;-67
2021/01/04 09:44:28;;;;;;;38.28;18.85;;;;;;;0.92;68.51;95929.19;5049735;28;20069;-67
2021/01/04 09:47:00;;;;;;;41.47;19.83;;;;;;;0.90;68.08;95920.63;5052813;28;20496;-66
2021/01/04 09:49:31;;;;;;;42.17;19.63;;;;;;;0.92;68.41;95923.81;5049245;28;20045;-70
2021/01/04 09:52:02;;;;;;;40.55;19.35;;;;;;;0.91;68.54;95912.31;5050643;28;20110;-68
2021/01/04 09:54:35;;;;;;;42.20;19.50;;;;;;;0.94;68.38;95916.31;5049885;28;20049;-69
2021/01/04 09:57:07;;;;;;;39.67;18.70;;;;;;;0.97;68.64;95915.78;5049741;28;20500;-69
2021/01/04 09:59:39;;;;;;;40.90;19.23;;;;;;;0.96;68.13;95911.50;5050361;28;20052;-68
2021/01/04 10:02:06;;;;;;;37.40;18.27;;;;;;;0.98;68.16;95912.03;5049341;28;20072;-69
2021/01/04 10:04:37;;;;;;;44.47;19.67;;;;;;;0.97;67.95;95910.41;5050072;28;20049;-69
2021/01/04 10:07:05;;;;;;;43.28;20.00;;;;;;;0.94;68.34;95913.63;5049248;28;20126;-70
2021/01/04 10:09:35;;;;;;;38.67;18.52;;;;;;;0.93;68.46;95909.34;5050566;28;20068;-69
2021/01/04 10:12:04;;;;;;;39.95;19.10;;;;;;;0.97;68.35;95910.41;5049409;28;20041;-69
2021/01/04 10:14:30;;;;;;;39.30;18.80;;;;;;;0.99;68.58;95911.78;5050595;28;20053;-69
2021/01/04 10:16:58;;;;;;;42.28;19.17;;;;;;;1.02;68.64;95902.38;5065451;28;20040;-69
2021/01/04 10:19:30;;;;;;;37.08;18.23;;;;;;;1.02;67.80;95897.81;5068298;28;20040;-68
2021/01/04 10:22:01;;;;;;;40.05;19.17;;;;;;;0.97;68.40;95894.34;5070096;28;20056;-69
2021/01/04 10:24:32;;;;;;;38.20;18.10;;;;;;;0.96;68.64;95884.69;5069072;28;20040;-70
2021/01/04 10:27:03;;;;;;;38.13;17.85;;;;;;;1.00;68.45;95883.88;5070405;28;20060;-68
2021/01/04 10:29:30;;;;;;;38.85;17.63;;;;;;;1.02;68.57;95879.06;5068906;28;20071;-70
2021/01/04 10:32:06;;;;;;;38.65;18.00;;;;;;;1.01;68.22;95880.13;5069985;28;20052;-71
2021/01/04 10:34:39;;;;;;;34.83;17.48;;;;;;;1.00;68.33;95875.03;5069624;28;20044;-68
2021/01/04 10:37:05;;;;;;;39.33;18.73;;;;;;;1.03;68.07;95866.44;5068316;28;20474;-71
2021/01/04 10:39:36;;;;;;;35.72;16.98;;;;;;;1.09;68.21;95865.38;5069334;28;20129;-71
2021/01/04 10:42:09;;;;;;;34.33;17.10;;;;;;;1.11;68.50;95868.59;5068325;28;20051;-71
2021/01/04 10:44:35;;;;;;;40.30;19.02;;;;;;;1.14;68.39;95865.38;5069680;28;20056;-69
2021/01/04 10:47:08;;;;;;;38.35;17.88;;;;;;;1.13;67.97;95860.28;5047688;28;20041;-71
2021/01/04 10:49:35;;;;;;;36.40;16.20;;;;;;;1.11;68.03;95857.88;5049372;28;20439;-70
2021/01/04 10:52:03;;;;;;;38.17;18.10;;;;;;;1.14;68.37;95856.50;5046038;28;20037;-69
2021/01/04 10:54:38;;;;;;;35.17;17.65;;;;;;;1.13;68.84;95857.59;5049319;28;20037;-69
2021/01/04 10:57:16;;;;;;;35.05;17.60;;;;;;;1.11;68.64;95846.34;5048329;28;20041;-69
2021/01/04 10:59:46;;;;;;;35.03;17.63;;;;;;;1.08;68.85;95842.31;5048166;28;20052;-69
2021/01/04 11:02:12;;;;;;;36.42;18.33;;;;;;;1.03;68.74;95845.78;5048267;28;20084;-68
2021/01/04 11:04:38;;;;;;;36.85;17.58;;;;;;;1.04;69.50;95838.56;5048335;28;20504;-69
2021/01/04 11:07:19;;;;;;;39.42;17.65;;;;;;;1.04;69.08;95839.38;5048634;28;20554;-69
2021/01/04 11:09:46;;;;;;;35.17;15.93;;;;;;;1.06;68.42;95839.09;5048297;28;20419;-69
2021/01/04 11:12:14;;;;;;;37.00;17.42;;;;;;;1.09;68.35;95832.38;5048684;28;20045;-68
2021/01/04 11:14:53;;;;;;;37.00;16.25;;;;;;;1.09;68.50;95827.81;5051463;28;20041;-69
2021/01/04 11:17:22;;;;;;;34.97;16.58;;;;;;;1.14;68.68;95827.81;5051471;28;20139;-69
2021/01/04 11:19:49;;;;;;;34.92;16.50;;;;;;;1.13;68.38;95826.22;5052589;28;20049;-68
2021/01/04 11:22:21;;;;;;;38.88;16.90;;;;;;;1.06;68.28;95833.75;5051107;28;20049;-69
2021/01/04 11:24:48;;;;;;;39.58;17.13;;;;;;;1.09;68.23;95824.34;5052388;28;20057;-69
2021/01/04 11:27:16;;;;;;;36.40;16.77;;;;;;;1.12;68.42;95832.66;5050697;28;20048;-69
2021/01/04 11:29:44;;;;;;;38.17;17.60;;;;;;;1.17;68.80;95821.94;5052706;28;20045;-68
2021/01/04 11:32:11;;;;;;;38.67;17.35;;;;;;;1.16;68.90;95828.38;5051404;28;20128;-69
2021/01/04 11:34:37;;;;;;;35.47;16.42;;;;;;;1.19;68.62;95819.75;5051400;28;20501;-68
2021/01/04 11:37:03;;;;;;;33.85;15.85;;;;;;;1.22;68.58;95818.44;5051167;28;20045;-70
2021/01/04 11:39:29;;;;;;;35.38;16.60;;;;;;;1.25;68.65;95826.75;5050177;28;20127;-69
2021/01/04 11:41:56;;;;;;;34.78;16.25;;;;;;;1.28;68.54;95814.66;5052075;28;20393;-69
2021/01/04 11:44:22;;;;;;;40.90;16.67;;;;;;;1.27;68.85;95815.75;5050733;28;20439;-69
2021/01/04 11:46:48;;;;;;;37.83;17.63;;;;;;;1.25;68.51;95816.03;5054108;28;20045;-69
2021/01/04 11:49:14;;;;;;;35.63;17.23;;;;;;;1.22;68.51;95813.06;5051310;28;20110;-69
2021/01/04 11:51:40;;;;;;;39.25;17.33;;;;;;;1.25;68.43;95818.72;5052900;28;20082;-68
2021/01/04 11:54:07;;;;;;;39.38;18.48;;;;;;;1.26;68.27;95808.78;5050832;28;20497;-69
2021/01/04 11:56:33;;;;;;;40.72;18.80;;;;;;;1.27;68.42;95813.84;5050610;28;20471;-69
2021/01/04 11:58:59;;;;;;;43.15;18.80;;;;;;;1.28;68.53;95810.09;5052198;28;20041;-69
2021/01/04 12:01:26;;;;;;;37.92;18.42;;;;;;;1.22;68.60;95803.16;5048435;28;20063;-69
2021/01/04 12:03:53;;;;;;;37.33;16.83;;;;;;;1.25;68.37;95805.28;5052123;28;20049;-69